Time;durP1;ratioP1;P1;durP2;ratioP2;P2;SDS_P1;SDS_P2;PMS_P1;PMS_P2;Temp;Humidity;BMP_temperature;BMP_pressure;BME280_temperature;BME280_humidity;BME280_pressure;Samples;Min_cycle;Max_cycle;Signal;HPM_P1;HPM_P2
2023/08/30 00:04:15;;;;;;;9.18;7.05;;;17.60;99.90;;;;;;10564677;28;20217;-84
2023/08/30 00:09:36;;;;;;;6.68;5.97;;;17.60;99.90;;;;;;10564367;28;20265;-84
2023/08/30 00:14:58;;;;;;;8.60;6.88;;;17.60;99.90;;;;;;10548858;28;20263;-89
2023/08/30 00:20:20;;;;;;;11.07;7.75;;;17.60;99.90;;;;;;10562971;28;20229;-83
2023/08/30 00:25:40;;;;;;;9.13;7.47;;;17.50;99.90;;;;;;10562702;28;20198;-84
2023/08/30 00:31:02;;;;;;;6.85;6.07;;;17.40;99.90;;;;;;10548707;28;20214;-82
2023/08/30 00:36:23;;;;;;;5.97;4.75;;;17.30;99.90;;;;;;10534014;28;20206;-83
2023/08/30 00:41:44;;;;;;;4.15;3.75;;;17.20;99.90;;;;;;10561713;28;20247;-82
2023/08/30 00:47:06;;;;;;;4.07;3.53;;;17.20;99.90;;;;;;10562257;28;20362;-84
2023/08/30 00:52:28;;;;;;;4.30;3.70;;;17.10;99.90;;;;;;10547834;28;20205;-83
2023/08/30 00:57:49;;;;;;;3.90;2.83;;;17.20;99.90;;;;;;10547087;28;20218;-81
2023/08/30 01:03:10;;;;;;;4.22;3.08;;;17.20;99.90;;;;;;10561426;28;20234;-86
2023/08/30 01:08:32;;;;;;;6.78;3.95;;;17.20;99.90;;;;;;10560934;28;20218;-85
2023/08/30 01:13:58;;;;;;;3.28;2.78;;;17.10;99.90;;;;;;10562109;28;20194;-80
2023/08/30 01:19:53;;;;;;;4.45;3.13;;;17.40;99.90;;;;;;10532884;28;20201;-81
2023/08/30 01:25:14;;;;;;;3.65;2.60;;;17.10;99.90;;;;;;10423883;28;20258;-81
2023/08/30 01:30:40;;;;;;;2.15;1.95;;;17.10;99.90;;;;;;10419841;28;20269;-85
2023/08/30 01:36:03;;;;;;;2.72;2.25;;;17.20;99.90;;;;;;10403188;28;20297;-82
2023/08/30 01:41:27;;;;;;;2.00;1.80;;;17.20;99.90;;;;;;10433573;28;20239;-83
2023/08/30 01:46:49;;;;;;;2.55;2.10;;;17.20;99.90;;;;;;10430419;28;20502;-86
2023/08/30 01:52:12;;;;;;;3.25;2.30;;;17.20;99.90;;;;;;10409237;28;20216;-82
2023/08/30 01:57:33;;;;;;;3.03;2.03;;;17.20;99.90;;;;;;10452020;28;20413;-82
2023/08/30 02:02:54;;;;;;;1.92;1.70;;;17.10;99.90;;;;;;10560388;28;20426;-86
2023/08/30 02:08:17;;;;;;;3.03;2.05;;;17.20;99.90;;;;;;10560066;28;20198;-84
2023/08/30 02:13:39;;;;;;;3.17;2.03;;;17.20;99.90;;;;;;10560298;28;20198;-82
2023/08/30 02:19:01;;;;;;;3.17;2.03;;;17.20;99.90;;;;;;10545688;28;20207;-84
2023/08/30 02:24:22;;;;;;;1.52;1.40;;;17.20;99.90;;;;;;10537669;28;20239;-81
2023/08/30 02:29:43;;;;;;;1.38;1.27;;;17.10;99.90;;;;;;10567787;28;20429;-84
2023/08/30 02:35:05;;;;;;;1.05;0.95;;;17.20;99.90;;;;;;10567247;28;20202;-85
2023/08/30 02:40:26;;;;;;;1.23;0.95;;;17.20;99.90;;;;;;10537914;28;20271;-86
2023/08/30 02:45:48;;;;;;;2.00;1.33;;;17.10;99.90;;;;;;10569340;28;20281;-82
2023/08/30 02:51:09;;;;;;;2.13;1.20;;;17.20;99.90;;;;;;10552661;28;20225;-86
2023/08/30 02:56:32;;;;;;;1.02;0.98;;;17.20;99.90;;;;;;10566378;28;20546;-86
2023/08/30 03:01:53;;;;;;;1.98;1.00;;;17.10;99.90;;;;;;10566076;28;20240;-84
2023/08/30 03:07:15;;;;;;;1.08;0.98;;;;;;;;;;10551485;28;20259;-86
2023/08/30 03:12:37;;;;;;;0.70;0.70;;;17.10;99.90;;;;;;10566802;28;20569;-86
2023/08/30 03:17:59;;;;;;;0.63;0.63;;;17.10;99.90;;;;;;10565691;28;20244;-85
2023/08/30 03:23:20;;;;;;;0.50;0.50;;;17.10;99.90;;;;;;10564984;28;20226;-81
2023/08/30 03:28:43;;;;;;;0.80;0.80;;;17.10;99.90;;;;;;10565242;28;20185;-83
2023/08/30 03:34:04;;;;;;;1.23;0.85;;;17.10;99.90;;;;;;10564198;28;20221;-80
2023/08/30 03:39:26;;;;;;;0.70;0.70;;;;;;;;;;10564127;28;20231;-82
2023/08/30 03:44:48;;;;;;;0.63;0.50;;;;;;;;;;10550366;28;20496;-83
2023/08/30 03:50:11;;;;;;;0.40;0.40;;;;;;;;;;10549798;28;20199;-85
2023/08/30 03:55:35;;;;;;;0.85;0.65;;;;;;;;;;10550320;28;20198;-86
2023/08/30 04:00:58;;;;;;;0.60;0.60;;;;;;;;;;10549504;28;20527;-84
2023/08/30 04:06:22;;;;;;;0.93;0.60;;;;;;;;;;10534988;28;20200;-80
2023/08/30 04:11:47;;;;;;;1.02;0.52;;;;;;;;;;10534837;28;20209;-86
2023/08/30 04:17:11;;;;;;;0.68;0.68;;;16.80;99.90;;;;;;10549004;28;20199;-87
2023/08/30 04:22:34;;;;;;;1.15;1.05;;;16.90;99.90;;;;;;10548383;28;20300;-85
2023/08/30 04:27:56;;;;;;;0.90;0.90;;;16.80;99.90;;;;;;10534505;28;20347;-82
2023/08/30 04:33:19;;;;;;;1.30;1.20;;;16.80;99.90;;;;;;10562813;28;20192;-85
2023/08/30 04:38:40;;;;;;;1.20;1.10;;;16.80;99.90;;;;;;10548121;28;20232;-88
2023/08/30 04:44:05;;;;;;;1.40;1.30;;;16.70;99.90;;;;;;10564679;28;20249;-89
2023/08/30 04:49:29;;;;;;;1.10;1.00;;;16.60;99.90;;;;;;10547557;28;20553;-86
2023/08/30 04:54:50;;;;;;;0.98;0.90;;;16.50;99.90;;;;;;10547650;28;20196;-89
2023/08/30 05:00:13;;;;;;;0.80;0.80;;;16.50;99.90;;;;;;10548047;28;20196;-88
2023/08/30 05:05:35;;;;;;;1.05;0.95;;;16.50;99.90;;;;;;10561784;28;20194;-88
2023/08/30 05:10:57;;;;;;;0.60;0.60;;;16.60;99.90;;;;;;10547410;28;20198;-83
2023/08/30 05:16:18;;;;;;;1.10;1.00;;;16.60;99.90;;;;;;10533325;28;20198;-84
2023/08/30 05:21:41;;;;;;;0.80;0.80;;;16.70;99.90;;;;;;10546462;28;20234;-87
2023/08/30 05:27:02;;;;;;;0.95;0.60;;;16.70;99.90;;;;;;10546410;28;20203;-81
2023/08/30 05:32:31;;;;;;;0.80;0.68;;;16.70;99.90;;;;;;10546225;28;20208;-86
2023/08/30 05:38:15;;;;;;;0.57;0.50;;;16.80;99.90;;;;;;10561310;28;20496;-86
2023/08/30 05:44:03;;;;;;;1.05;0.60;;;16.80;99.90;;;;;;10515920;28;20245;-81
2023/08/30 05:49:24;;;;;;;0.77;0.77;;;16.90;99.90;;;;;;10501162;28;20281;-83
2023/08/30 05:54:45;;;;;;;0.82;0.70;;;17.00;99.90;;;;;;10502221;28;20254;-81
2023/08/30 06:00:08;;;;;;;1.10;0.60;;;17.00;99.90;;;;;;10507211;28;20293;-86
2023/08/30 06:05:36;;;;;;;0.68;0.40;;;17.10;99.90;;;;;;10510807;28;20209;-82
2023/08/30 06:10:57;;;;;;;0.63;0.55;;;17.10;99.90;;;;;;10492721;28;20521;-83
2023/08/30 06:16:18;;;;;;;0.40;0.40;;;17.10;99.90;;;;;;10492276;28;20203;-85
2023/08/30 06:21:40;;;;;;;0.98;0.73;;;17.20;99.90;;;;;;10565622;28;20245;-82
2023/08/30 06:27:01;;;;;;;1.23;0.70;;;17.20;99.90;;;;;;10553085;28;20198;-83
2023/08/30 06:32:22;;;;;;;2.40;0.80;;;17.20;99.90;;;;;;10552551;28;20202;-81
2023/08/30 06:37:44;;;;;;;2.58;0.60;;;17.20;99.90;;;;;;10538219;28;20211;-82
2023/08/30 06:43:05;;;;;;;0.65;0.60;;;17.20;99.90;;;;;;10552774;28;20230;-82
2023/08/30 06:48:27;;;;;;;1.50;0.75;;;17.40;99.90;;;;;;10551786;28;20269;-86
2023/08/30 06:53:48;;;;;;;0.40;0.40;;;17.50;99.90;;;;;;10567263;28;20485;-83
2023/08/30 06:59:09;;;;;;;0.50;0.50;;;17.50;99.90;;;;;;10565492;28;20202;-80
2023/08/30 07:04:30;;;;;;;0.50;0.50;;;17.50;99.90;;;;;;10566889;28;20234;-82
2023/08/30 07:09:52;;;;;;;4.60;0.77;;;17.60;99.90;;;;;;10537344;28;20195;-81
2023/08/30 07:15:14;;;;;;;0.82;0.80;;;17.60;99.90;;;;;;10551348;28;20198;-82
2023/08/30 07:20:38;;;;;;;1.00;0.90;;;17.60;99.90;;;;;;10565224;28;20224;-83
2023/08/30 07:25:59;;;;;;;1.30;1.10;;;17.70;99.90;;;;;;10523476;28;20194;-80
2023/08/30 07:31:21;;;;;;;0.80;0.80;;;17.70;99.90;;;;;;10508549;28;20203;-81
2023/08/30 07:36:42;;;;;;;0.85;0.85;;;17.70;99.90;;;;;;10538198;28;20204;-86
2023/08/30 07:42:06;;;;;;;0.60;0.60;;;17.70;99.90;;;;;;10562991;28;20245;-81
2023/08/30 07:47:28;;;;;;;2.88;0.75;;;17.80;99.90;;;;;;10549431;28;20229;-82
2023/08/30 07:52:49;;;;;;;0.45;0.40;;;17.90;99.90;;;;;;10538615;28;20233;-82
2023/08/30 07:58:10;;;;;;;0.47;0.47;;;17.80;99.90;;;;;;10563318;28;20192;-91
2023/08/30 08:03:31;;;;;;;0.50;0.50;;;18.00;99.90;;;;;;10563927;28;20222;-87
2023/08/30 08:08:52;;;;;;;0.50;0.50;;;18.00;99.90;;;;;;10549418;28;20198;-85
2023/08/30 08:14:14;;;;;;;0.40;0.40;;;18.00;99.90;;;;;;10563184;28;20202;-81
2023/08/30 08:19:39;;;;;;;0.38;0.38;;;18.10;99.90;;;;;;10562352;28;20198;-81
2023/08/30 08:25:00;;;;;;;0.50;0.50;;;18.20;99.90;;;;;;10562573;28;20230;-83
2023/08/30 08:30:22;;;;;;;0.63;0.63;;;18.20;99.90;;;;;;10534089;28;20497;-81
2023/08/30 08:35:44;;;;;;;0.40;0.40;;;18.20;99.90;;;;;;10547418;28;20229;-83
2023/08/30 08:41:07;;;;;;;0.73;0.73;;;18.20;99.90;;;;;;10546681;28;20492;-86
2023/08/30 08:46:31;;;;;;;0.60;0.60;;;18.20;99.90;;;;;;10547243;28;20441;-81
2023/08/30 08:51:52;;;;;;;0.82;0.50;;;18.20;99.90;;;;;;10547116;28;20375;-81
2023/08/30 08:57:13;;;;;;;1.38;0.70;;;18.20;99.90;;;;;;10561289;28;20195;-84
2023/08/30 09:02:35;;;;;;;1.45;0.82;;;18.20;99.90;;;;;;10561140;28;20229;-82
2023/08/30 09:07:56;;;;;;;0.52;0.52;;;18.00;99.90;;;;;;10561323;28;20508;-84
2023/08/30 09:13:18;;;;;;;1.30;0.70;;;18.00;99.90;;;;;;10560788;28;20190;-84
2023/08/30 09:18:39;;;;;;;1.20;0.63;;;18.00;99.90;;;;;;10561032;28;20198;-88
2023/08/30 09:24:05;;;;;;;0.65;0.65;;;18.10;99.90;;;;;;10546494;28;20225;-82
2023/08/30 09:29:26;;;;;;;0.65;0.65;;;18.10;99.90;;;;;;10561192;28;20190;-84
2023/08/30 09:34:48;;;;;;;1.48;0.90;;;18.10;99.90;;;;;;10554502;28;20540;-81
2023/08/30 09:40:09;;;;;;;0.70;0.70;;;18.10;99.90;;;;;;10569689;28;20230;-81
2023/08/30 09:45:30;;;;;;;1.63;0.90;;;18.10;99.90;;;;;;10555230;28;20221;-84
2023/08/30 09:50:56;;;;;;;1.55;0.60;;;18.00;99.90;;;;;;10569693;28;20244;-82
2023/08/30 09:56:18;;;;;;;3.35;1.05;;;18.00;99.90;;;;;;10569687;28;20493;-81
2023/08/30 10:01:40;;;;;;;1.20;0.90;;;17.90;82.30;;;;;;10569388;28;20230;-83
2023/08/30 10:07:04;;;;;;;1.42;0.80;;;17.90;1.00;;;;;;10540368;28;20201;-81
2023/08/30 10:12:26;;;;;;;2.28;0.82;;;18.00;1.00;;;;;;10553706;28;20202;-84
2023/08/30 10:17:50;;;;;;;1.42;0.82;;;18.00;1.00;;;;;;10553801;28;20210;-89
2023/08/30 10:23:11;;;;;;;1.42;0.70;;;18.20;1.00;;;;;;10567671;28;20222;-82
2023/08/30 10:28:35;;;;;;;1.13;0.70;;;18.40;1.00;;;;;;10553238;28;20551;-81
2023/08/30 10:33:56;;;;;;;3.10;0.90;;;18.70;1.00;;;;;;10552909;28;20274;-88
2023/08/30 10:39:17;;;;;;;2.67;1.30;;;18.90;99.90;;;;;;10551844;28;20230;-86
2023/08/30 10:44:52;;;;;;;2.38;1.38;;;18.80;99.90;;;;;;10551687;28;20601;-83
2023/08/30 10:50:34;;;;;;;0.63;0.55;;;18.80;99.90;;;;;;10551884;28;20212;-83
2023/08/30 10:56:10;;;;;;;0.85;0.65;;;18.70;99.90;;;;;;10552177;28;20202;-85
2023/08/30 11:01:32;;;;;;;3.00;0.60;;;18.60;99.90;;;;;;10552176;28;20210;-86
2023/08/30 11:06:55;;;;;;;1.25;0.63;;;18.50;99.90;;;;;;10565924;28;20194;-86
2023/08/30 11:12:18;;;;;;;1.35;0.70;;;18.50;99.90;;;;;;10537154;28;20201;-87
2023/08/30 11:17:39;;;;;;;1.42;0.73;;;18.60;99.90;;;;;;10565424;28;20206;-81
2023/08/30 11:23:03;;;;;;;2.25;0.93;;;18.80;99.90;;;;;;10564675;28;20233;-80
2023/08/30 11:28:25;;;;;;;0.88;0.80;;;18.90;99.90;;;;;;10565114;28;20197;-80
2023/08/30 11:33:55;;;;;;;1.50;0.90;;;19.10;1.00;;;;;;10565008;28;20235;-80
2023/08/30 11:39:17;;;;;;;0.68;0.63;;;19.00;24.50;;;;;;10535618;28;20288;-80
2023/08/30 11:44:39;;;;;;;1.25;1.00;;;18.80;1.00;;;;;;10549736;28;20483;-81
2023/08/30 11:50:00;;;;;;;2.90;0.95;;;18.50;1.00;;;;;;10563092;28;20232;-82
2023/08/30 11:55:22;;;;;;;2.03;1.40;;;18.30;1.70;;;;;;10548761;28;20242;-81
2023/08/30 12:00:44;;;;;;;3.00;1.70;;;18.20;1.00;;;;;;10563782;28;20190;-86
2023/08/30 12:06:14;;;;;;;1.60;0.88;;;18.10;9.00;;;;;;10564364;28;20191;-80
2023/08/30 12:11:36;;;;;;;3.65;1.10;;;18.00;7.10;;;;;;10563358;28;20205;-82
2023/08/30 12:17:00;;;;;;;1.42;1.33;;;17.90;61.90;;;;;;10562960;28;20551;-81
2023/08/30 12:22:21;;;;;;;2.75;1.65;;;18.00;96.30;;;;;;10562643;28;20225;-80
2023/08/30 12:27:42;;;;;;;1.60;1.50;;;18.10;95.10;;;;;;10534339;28;20200;-82
2023/08/30 12:33:03;;;;;;;2.65;1.67;;;18.20;41.50;;;;;;10562095;28;20202;-81
2023/08/30 12:38:25;;;;;;;1.30;1.20;;;18.10;92.40;;;;;;10563016;28;20196;-87
2023/08/30 12:43:46;;;;;;;1.83;1.20;;;18.10;93.40;;;;;;10563272;28;20222;-81
2023/08/30 12:49:08;;;;;;;3.00;1.08;;;18.10;97.40;;;;;;10562512;28;20263;-81
2023/08/30 12:54:29;;;;;;;1.92;1.23;;;18.00;73.40;;;;;;10547539;28;20274;-82
2023/08/30 12:59:51;;;;;;;2.20;1.42;;;17.90;82.40;;;;;;10547289;28;20197;-82
2023/08/30 13:05:12;;;;;;;2.42;1.90;;;18.00;38.80;;;;;;10546898;28;20237;-81
2023/08/30 13:10:34;;;;;;;1.77;1.05;;;17.90;92.10;;;;;;10546651;28;20218;-81
2023/08/30 13:15:55;;;;;;;1.70;0.90;;;18.00;92.10;;;;;;10546458;28;20209;-81
2023/08/30 13:21:17;;;;;;;1.40;0.75;;;17.90;81.80;;;;;;10546494;28;20211;-81
2023/08/30 13:26:42;;;;;;;1.00;0.90;;;17.90;34.80;;;;;;10560691;28;20433;-85
2023/08/30 13:32:03;;;;;;;1.20;1.10;;;17.90;11.80;;;;;;10561444;28;20240;-86
2023/08/30 13:37:24;;;;;;;1.67;1.02;;;18.10;18.30;;;;;;10561402;28;20198;-81
2023/08/30 13:42:45;;;;;;;1.05;0.73;;;18.20;1.00;;;;;;10551854;28;20321;-80
2023/08/30 13:48:07;;;;;;;1.45;0.70;;;18.20;1.00;;;;;;10510671;28;20202;-82
2023/08/30 13:53:28;;;;;;;2.60;0.73;;;18.20;1.00;;;;;;10545674;28;20209;-89
2023/08/30 13:58:49;;;;;;;0.80;0.70;;;18.20;1.00;;;;;;10504381;28;20198;-81
2023/08/30 14:04:10;;;;;;;1.80;1.17;;;18.10;1.00;;;;;;10518060;28;20315;-82
2023/08/30 14:09:31;;;;;;;1.00;0.90;;;18.10;1.00;;;;;;10489867;28;20439;-81
2023/08/30 14:14:53;;;;;;;2.05;0.90;;;18.20;1.00;;;;;;10517223;28;20248;-81
2023/08/30 14:20:14;;;;;;;1.00;0.90;;;18.10;1.00;;;;;;10509713;28;20253;-82
2023/08/30 14:25:35;;;;;;;1.67;0.93;;;18.00;1.00;;;;;;10565330;28;20267;-82
2023/08/30 14:30:56;;;;;;;1.52;0.80;;;17.90;1.00;;;;;;10568147;28;20197;-87
2023/08/30 14:36:17;;;;;;;1.52;0.90;;;17.70;1.00;;;;;;10566947;28;20396;-83
2023/08/30 14:41:38;;;;;;;1.10;1.00;;;17.70;1.00;;;;;;10524757;28;20265;-85
2023/08/30 14:46:59;;;;;;;2.83;0.98;;;17.60;21.60;;;;;;10524656;28;20202;-88
2023/08/30 14:52:21;;;;;;;1.02;0.95;;;17.50;76.80;;;;;;10566929;28;20209;-91
2023/08/30 14:57:42;;;;;;;1.15;1.00;;;17.50;99.90;;;;;;10551882;28;20274;-89
2023/08/30 15:03:04;;;;;;;3.05;0.80;;;17.50;99.90;;;;;;10566431;28;20515;-89
2023/08/30 15:08:25;;;;;;;1.92;1.00;;;17.50;99.90;;;;;;10566671;28;20216;-83
2023/08/30 15:13:47;;;;;;;1.25;0.93;;;17.50;82.40;;;;;;10551464;28;20210;-83
2023/08/30 15:19:08;;;;;;;0.82;0.75;;;17.50;86.90;;;;;;10537535;28;20210;-86
2023/08/30 15:24:29;;;;;;;1.73;0.98;;;17.40;59.90;;;;;;10566878;28;20228;-83
2023/08/30 15:29:53;;;;;;;2.45;0.98;;;17.30;35.30;;;;;;10564039;28;20238;-80
2023/08/30 15:35:14;;;;;;;1.92;0.90;;;17.20;49.00;;;;;;10550592;28;20207;-82
2023/08/30 15:40:36;;;;;;;1.50;0.80;;;17.10;78.90;;;;;;10565270;28;20233;-85
2023/08/30 15:45:58;;;;;;;1.67;1.20;;;17.10;82.90;;;;;;10564748;28;20274;-84
2023/08/30 15:51:19;;;;;;;1.50;0.98;;;17.10;87.80;;;;;;10550018;28;20228;-81
2023/08/30 15:56:45;;;;;;;2.38;1.33;;;17.00;99.90;;;;;;10549969;28;20212;-84
2023/08/30 16:02:06;;;;;;;2.53;1.00;;;17.00;99.90;;;;;;10535227;28;20571;-82
2023/08/30 16:07:27;;;;;;;1.50;1.25;;;17.00;99.90;;;;;;10550610;28;20199;-90
2023/08/30 16:12:48;;;;;;;1.05;1.00;;;17.10;95.70;;;;;;10550412;28;20209;-87
2023/08/30 16:18:10;;;;;;;3.63;2.35;;;17.10;99.90;;;;;;10563774;28;20257;-89
2023/08/30 16:23:31;;;;;;;4.57;2.45;;;17.00;99.90;;;;;;10548617;28;20238;-86
2023/08/30 16:28:53;;;;;;;3.03;2.30;;;17.00;99.90;;;;;;10563234;28;20193;-87
2023/08/30 16:34:14;;;;;;;4.32;2.28;;;16.90;99.90;;;;;;10548695;28;20207;-90
2023/08/30 16:39:35;;;;;;;6.65;3.92;;;17.00;99.90;;;;;;10561771;28;20334;-84
2023/08/30 16:44:58;;;;;;;3.67;2.75;;;17.00;99.90;;;;;;10548081;28;20237;-83
2023/08/30 16:50:20;;;;;;;4.63;2.88;;;16.00;99.90;;;;;;10547502;28;20440;-86
2023/08/30 16:55:41;;;;;;;3.40;2.60;;;17.00;99.90;;;;;;10547439;28;20194;-80
2023/08/30 17:01:08;;;;;;;1.75;1.38;;;17.60;99.90;;;;;;10533651;28;20558;-90
2023/08/30 17:06:29;;;;;;;1.92;1.15;;;16.70;99.90;;;;;;10547249;28;20227;-82
2023/08/30 17:11:50;;;;;;;1.33;1.10;;;16.60;91.60;;;;;;10533280;28;20208;-89
2023/08/30 17:17:12;;;;;;;2.08;0.98;;;16.60;99.80;;;;;;10561512;28;20204;-89
2023/08/30 17:22:33;;;;;;;1.23;1.13;;;16.60;91.70;;;;;;10560683;28;20231;-81
2023/08/30 17:27:54;;;;;;;2.40;1.48;;;16.50;92.90;;;;;;10547163;28;20273;-82
2023/08/30 17:33:16;;;;;;;2.53;1.40;;;16.50;99.90;;;;;;10546957;28;20506;-82
2023/08/30 17:38:38;;;;;;;4.57;3.08;;;16.50;99.90;;;;;;10545992;28;20201;-80
2023/08/30 17:44:00;;;;;;;4.18;2.72;;;16.50;99.90;;;;;;10560977;28;20220;-79
2023/08/30 17:49:21;;;;;;;4.55;2.88;;;16.50;97.70;;;;;;10546113;28;20227;-81
2023/08/30 17:54:42;;;;;;;3.92;2.30;;;16.30;91.10;;;;;;10566343;28;20192;-82
2023/08/30 18:00:05;;;;;;;1.60;1.50;;;16.30;82.50;;;;;;10568376;28;20199;-81
2023/08/30 18:05:31;;;;;;;3.58;2.67;;;16.20;54.00;;;;;;10569262;28;20420;-81
2023/08/30 18:10:52;;;;;;;3.78;2.80;;;16.20;76.90;;;;;;10568215;28;20242;-80
2023/08/30 18:16:15;;;;;;;3.53;2.42;;;16.20;99.90;;;;;;10539563;28;20207;-80
2023/08/30 18:21:36;;;;;;;4.50;2.75;;;16.20;99.90;;;;;;10567458;28;20572;-80
2023/08/30 18:26:57;;;;;;;4.85;2.85;;;16.20;74.70;;;;;;10553482;28;20245;-85
2023/08/30 18:32:19;;;;;;;4.32;2.40;;;16.10;91.90;;;;;;10567453;28;20208;-89
2023/08/30 18:37:41;;;;;;;3.13;1.90;;;16.10;94.80;;;;;;10567129;28;20251;-83
2023/08/30 18:43:02;;;;;;;3.03;1.92;;;16.10;99.90;;;;;;10525387;28;20323;-88
2023/08/30 18:48:23;;;;;;;3.97;2.50;;;16.10;81.30;;;;;;10546045;28;20266;-81
2023/08/30 18:53:45;;;;;;;2.72;1.92;;;16.10;98.60;;;;;;10566857;28;20211;-88
2023/08/30 18:59:08;;;;;;;9.63;5.38;;;16.00;37.10;;;;;;10552499;28;20268;-85
2023/08/30 19:04:29;;;;;;;5.15;3.13;;;15.90;64.70;;;;;;10566001;28;20221;-83
2023/08/30 19:09:50;;;;;;;4.13;1.98;;;15.90;44.50;;;;;;10567553;28;20192;-82
2023/08/30 19:15:11;;;;;;;2.38;1.92;;;15.90;1.00;;;;;;10551636;28;20380;-85
2023/08/30 19:20:32;;;;;;;6.10;3.35;;;15.80;1.00;;;;;;10565722;28;20272;-84
2023/08/30 19:25:54;;;;;;;7.68;3.85;;;15.80;1.00;;;;;;10508994;28;20237;-80
2023/08/30 19:31:16;;;;;;;7.97;3.72;;;15.80;10.80;;;;;;10537881;28;20201;-82
2023/08/30 19:36:37;;;;;;;5.18;2.80;;;15.70;1.00;;;;;;10539209;28;20197;-80
2023/08/30 19:41:59;;;;;;;3.50;2.20;;;15.80;18.10;;;;;;10564274;28;20241;-83
2023/08/30 19:47:20;;;;;;;3.63;2.03;;;15.70;1.00;;;;;;10564392;28;20219;-81
2023/08/30 19:52:41;;;;;;;2.28;1.40;;;15.70;17.20;;;;;;10524766;28;20531;-81
2023/08/30 19:58:03;;;;;;;3.03;1.80;;;15.70;21.00;;;;;;10547921;28;20498;-82
2023/08/30 20:03:24;;;;;;;1.23;1.13;;;15.70;19.60;;;;;;10549026;28;20574;-81
2023/08/30 20:08:45;;;;;;;1.55;1.17;;;15.70;19.10;;;;;;10535398;28;20197;-82
2023/08/30 20:14:06;;;;;;;2.08;1.05;;;15.70;19.40;;;;;;10548155;28;20499;-82
2023/08/30 20:19:46;;;;;;;2.33;1.35;;;15.70;11.70;;;;;;10548973;28;20268;-81
2023/08/30 20:25:10;;;;;;;1.83;1.13;;;15.70;12.00;;;;;;10534432;28;20294;-80
2023/08/30 20:30:32;;;;;;;3.40;1.63;;;15.70;48.90;;;;;;10548560;28;20201;-80
2023/08/30 20:36:06;;;;;;;6.38;1.98;;;15.70;34.90;;;;;;10561744;28;20244;-85
2023/08/30 20:41:28;;;;;;;2.33;1.40;;;15.60;6.30;;;;;;10545129;28;20240;-80
2023/08/30 20:46:49;;;;;;;3.28;1.20;;;15.70;1.00;;;;;;10533291;28;20229;-82
2023/08/30 20:52:13;;;;;;;1.40;1.23;;;15.50;38.60;;;;;;10562901;28;20193;-82
2023/08/30 20:57:34;;;;;;;1.95;1.30;;;15.60;43.40;;;;;;10562830;28;20193;-83
2023/08/30 21:09:36;;;;;;;1.77;1.13;;;15.50;47.60;;;;;;10562444;28;20212;-81
2023/08/30 21:21:54;;;;;;;2.95;1.00;;;15.50;57.50;;;;;;10562303;28;20385;-83
2023/08/30 21:27:15;;;;;;;1.50;1.15;;;15.50;74.30;;;;;;10532541;28;20241;-84
2023/08/30 21:32:38;;;;;;;3.03;1.30;;;15.50;99.90;;;;;;10560729;28;20200;-85
2023/08/30 21:37:59;;;;;;;1.83;1.13;;;15.50;99.90;;;;;;10546412;28;20380;-83
2023/08/30 21:43:20;;;;;;;1.67;1.05;;;15.50;99.90;;;;;;10560567;28;20567;-82
2023/08/30 21:48:42;;;;;;;1.15;1.05;;;15.50;97.10;;;;;;10560598;28;20208;-81
2023/08/30 21:54:04;;;;;;;1.92;1.13;;;15.50;99.90;;;;;;10560418;28;20492;-80
2023/08/30 21:59:25;;;;;;;1.55;1.00;;;15.50;99.90;;;;;;10560209;28;20266;-81
2023/08/30 22:04:46;;;;;;;1.45;1.35;;;15.50;99.50;;;;;;10546121;28;20220;-83
2023/08/30 22:10:15;;;;;;;1.88;1.20;;;15.60;99.90;;;;;;10545978;28;20204;-81
2023/08/30 22:15:36;;;;;;;1.92;1.08;;;15.50;99.90;;;;;;10559823;28;20208;-81
2023/08/30 22:20:58;;;;;;;2.35;1.00;;;15.50;99.90;;;;;;10559867;28;20208;-82
2023/08/30 22:26:19;;;;;;;1.92;1.15;;;15.50;99.90;;;;;;10545388;28;20300;-80
2023/08/30 22:31:40;;;;;;;2.47;1.30;;;15.50;99.90;;;;;;10545180;28;20211;-83
2023/08/30 22:37:01;;;;;;;1.60;1.15;;;15.50;99.90;;;;;;10544943;28;20279;-80
2023/08/30 22:42:23;;;;;;;1.20;1.10;;;15.50;99.90;;;;;;10552309;28;20276;-80
2023/08/30 22:47:45;;;;;;;1.65;1.00;;;15.50;99.90;;;;;;10566674;28;20202;-81
2023/08/30 22:53:06;;;;;;;2.03;1.15;;;15.50;99.90;;;;;;10538431;28;20211;-82
2023/08/30 22:58:28;;;;;;;1.48;1.10;;;15.50;99.90;;;;;;10567112;28;20564;-80
2023/08/30 23:03:48;;;;;;;5.13;1.42;;;15.50;99.90;;;;;;10566100;28;20248;-81
2023/08/30 23:09:10;;;;;;;3.88;1.70;;;15.50;99.90;;;;;;10551735;28;20537;-81
2023/08/30 23:14:32;;;;;;;1.48;1.38;;;15.40;99.90;;;;;;10551571;28;20201;-80
2023/08/30 23:19:53;;;;;;;4.93;1.80;;;15.40;99.90;;;;;;10565859;28;20217;-80
2023/08/30 23:25:15;;;;;;;2.40;2.05;;;15.40;99.90;;;;;;10550964;28;20251;-82
2023/08/30 23:30:36;;;;;;;3.15;2.03;;;15.40;99.90;;;;;;10551096;28;20237;-80
2023/08/30 23:36:02;;;;;;;2.90;1.85;;;15.40;99.90;;;;;;10564632;28;20234;-80
2023/08/30 23:41:23;;;;;;;2.20;1.65;;;15.40;63.20;;;;;;10564218;28;20255;-80
2023/08/30 23:46:44;;;;;;;3.55;1.88;;;15.30;92.20;;;;;;10549986;28;20225;-80
2023/08/30 23:52:06;;;;;;;5.55;1.85;;;15.30;99.90;;;;;;10551402;28;20199;-80
2023/08/30 23:57:27;;;;;;;5.10;1.90;;;15.20;99.90;;;;;;10549351;28;20200;-80
